Time;durP1;ratioP1;P1;durP2;ratioP2;P2;SDS_P1;SDS_P2;PMS_P1;PMS_P2;Temp;Humidity;BMP_temperature;BMP_pressure;BME280_temperature;BME280_humidity;BME280_pressure;Samples;Min_cycle;Max_cycle;Signal;HPM_P1;HPM_P2
2022/01/20 00:01:35;;;;;;;29.05;18.65;;;;;;;28.26;58.99;100982.09;5072079;28;67282;-41
2022/01/20 00:04:04;;;;;;;28.30;18.25;;;;;;;28.31;59.13;100984.19;5071527;27;72697;-39
2022/01/20 00:26:15;;;;;;;72.95;34.58;;;;;;;28.67;64.14;101005.53;5072664;28;69667;-40
2022/01/20 00:28:50;;;;;;;64.55;34.85;;;;;;;28.69;64.93;101024.22;5070761;27;66482;-40
2022/01/20 00:32:04;;;;;;;66.30;34.85;;;;;;;28.73;65.04;101025.50;5072752;27;70386;-42
2022/01/20 00:34:20;;;;;;;87.93;44.45;;;;;;;28.77;64.89;101037.53;5074708;27;65678;-40
2022/01/20 00:39:39;;;;;;;65.40;36.90;;;;;;;28.59;65.07;101008.41;5077055;27;66344;-39
2022/01/20 00:42:09;;;;;;;69.53;37.80;;;;;;;28.75;64.84;101045.00;5076833;27;70081;-39
2022/01/20 00:44:40;;;;;;;62.60;36.25;;;;;;;28.74;64.73;101046.88;5081010;27;65556;-39
2022/01/20 00:47:11;;;;;;;78.65;42.53;;;;;;;28.79;64.54;101056.25;5077448;27;70515;-39
2022/01/20 00:49:43;;;;;;;75.93;41.22;;;;;;;28.56;64.60;101027.72;5080595;27;66179;-39
2022/01/20 00:52:15;;;;;;;68.57;36.15;;;;;;;28.78;65.17;101071.63;5079662;27;69551;-39
2022/01/20 00:54:45;;;;;;;69.28;36.42;;;;;;;28.78;65.17;101068.91;5076865;27;66476;-40
2022/01/20 00:57:16;;;;;;;69.75;34.53;;;;;;;28.80;65.22;101069.53;5079974;27;69371;-39
2022/01/20 00:59:46;;;;;;;50.63;29.38;;;;;;;28.83;65.42;101079.91;5079742;27;65992;-39
2022/01/20 01:02:17;;;;;;;49.70;30.23;;;;;;;28.79;65.16;101078.66;5068065;28;70312;-39
2022/01/20 01:04:49;;;;;;;46.22;29.23;;;;;;;28.85;65.08;101088.66;5073791;28;66076;-39
2022/01/20 01:09:50;;;;;;;41.03;27.73;;;;;;;28.89;64.96;101103.44;5076250;27;66141;-39
2022/01/20 01:12:32;;;;;;;43.00;27.55;;;;;;;28.91;64.82;101109.44;5077381;27;70964;-39
2022/01/20 01:15:06;;;;;;;50.63;28.30;;;;;;;28.90;64.64;101107.78;5078486;27;66255;-39
2022/01/20 01:20:27;;;;;;;38.33;26.90;;;;;;;28.94;64.43;101109.03;5063433;27;66410;-39
2022/01/20 01:22:57;;;;;;;36.75;26.17;;;;;;;28.94;63.90;101100.94;5076552;27;69145;-39
2022/01/20 01:25:28;;;;;;;37.17;25.33;;;;;;;28.98;63.99;101105.97;5075881;27;65989;-41
2022/01/20 01:27:59;;;;;;;41.92;27.80;;;;;;;28.94;64.05;101109.03;5074611;27;70115;-39
2022/01/20 01:31:06;;;;;;;40.80;26.23;;;;;;;28.98;63.76;101106.78;5074266;27;65753;-41
2022/01/20 01:33:33;;;;;;;39.60;24.80;;;;;;;28.96;63.99;101106.97;5072345;27;70226;-40
2022/01/20 01:36:06;;;;;;;35.35;24.50;;;;;;;29.03;63.83;101111.56;5071055;27;66345;-40
2022/01/20 01:38:37;;;;;;;38.80;24.90;;;;;;;28.93;63.64;101101.97;5077511;27;70292;-39
2022/01/20 01:41:12;;;;;;;39.05;25.13;;;;;;;29.02;63.48;101115.31;5073331;27;65621;-39
2022/01/20 01:43:47;;;;;;;37.92;23.65;;;;;;;29.04;63.50;101113.28;5070644;27;70703;-39
2022/01/20 01:46:17;;;;;;;34.53;24.02;;;;;;;29.06;63.50;101122.00;5077909;27;65649;-39
2022/01/20 01:48:48;;;;;;;33.55;22.85;;;;;;;29.07;62.86;101129.06;5075579;27;70540;-39
2022/01/20 01:51:18;;;;;;;34.28;23.42;;;;;;;29.06;62.99;101132.78;5077379;27;66624;-39
2022/01/20 01:53:49;;;;;;;35.05;24.65;;;;;;;29.11;63.24;101135.72;5070508;27;70409;-39
2022/01/20 01:56:21;;;;;;;36.85;24.65;;;;;;;29.11;63.29;101133.03;5090297;27;65943;-39
2022/01/20 01:58:54;;;;;;;34.25;23.65;;;;;;;29.13;63.20;101133.66;5070212;27;70185;-41
2022/01/20 02:01:41;;;;;;;33.67;23.48;;;;;;;29.12;63.24;101137.41;5083555;27;66469;-39
2022/01/20 02:04:19;;;;;;;34.17;23.00;;;;;;;29.07;62.96;101126.38;5077321;27;70144;-40
2022/01/20 02:20:41;;;;;;;30.95;22.90;;;;;;;29.26;62.25;101146.41;5076428;27;70464;-39
2022/01/20 02:23:15;;;;;;;32.03;22.83;;;;;;;29.26;62.66;101149.09;5060932;28;66787;-39
2022/01/20 02:25:48;;;;;;;28.02;21.90;;;;;;;29.25;62.35;101142.84;5075715;27;70256;-39
2022/01/20 02:28:18;;;;;;;28.38;21.08;;;;;;;29.28;62.47;101144.31;5072043;27;65972;-39
2022/01/20 02:30:48;;;;;;;31.35;21.42;;;;;;;29.27;62.27;101135.38;5079622;27;70557;-39
2022/01/20 02:33:21;;;;;;;24.92;20.38;;;;;;;29.32;61.94;101142.88;5070594;27;66817;-39
2022/01/20 02:35:59;;;;;;;23.52;20.38;;;;;;;29.14;61.61;101102.91;5075207;27;70164;-39
2022/01/20 02:38:37;;;;;;;28.40;20.00;;;;;;;29.34;62.19;101141.63;5067532;27;65731;-39
2022/01/20 02:46:45;;;;;;;26.52;18.75;;;;;;;29.39;61.75;101144.56;5086603;27;69237;-39
2022/01/20 02:49:18;;;;;;;27.08;20.55;;;;;;;29.40;61.49;101143.53;5073564;27;65402;-39
2022/01/20 02:51:53;;;;;;;23.70;19.25;;;;;;;29.42;61.22;101154.16;5075266;27;70016;-39
2022/01/20 02:54:24;;;;;;;23.80;19.10;;;;;;;29.43;61.04;101149.56;5084987;27;66516;-39
2022/01/20 02:56:56;;;;;;;25.40;19.38;;;;;;;29.46;61.14;101143.75;5079393;27;69781;-39
2022/01/20 02:59:28;;;;;;;22.38;19.13;;;;;;;29.46;60.97;101141.03;5075224;27;67446;-40
2022/01/20 03:01:59;;;;;;;21.67;18.67;;;;;;;29.45;60.86;101142.91;5079396;27;69208;-40
2022/01/20 03:04:30;;;;;;;22.67;18.65;;;;;;;29.51;60.68;101149.38;5076209;27;66040;-40
2022/01/20 03:07:05;;;;;;;20.65;18.42;;;;;;;29.54;60.67;101141.69;5082907;27;70056;-39
2022/01/20 03:09:35;;;;;;;23.33;18.03;;;;;;;29.52;61.20;101121.28;5076304;28;66100;-40
2022/01/20 03:12:06;;;;;;;20.98;17.63;;;;;;;29.54;60.59;101127.34;5079448;27;69938;-40
2022/01/20 03:14:37;;;;;;;19.85;17.75;;;;;;;29.61;60.39;101141.69;5080468;27;65795;-40
2022/01/20 03:17:07;;;;;;;18.88;16.88;;;;;;;29.62;60.17;101143.38;5079562;27;70740;-39
2022/01/20 03:19:37;;;;;;;18.98;17.00;;;;;;;29.65;60.31;101142.97;5079513;27;65750;-39
2022/01/20 03:22:08;;;;;;;20.63;17.13;;;;;;;29.67;60.13;101135.50;5061505;27;69209;-40
2022/01/20 03:24:38;;;;;;;19.73;17.58;;;;;;;29.69;60.29;101130.69;5074604;27;66590;-40
2022/01/20 03:27:09;;;;;;;20.20;17.30;;;;;;;29.68;60.59;101131.75;5080066;27;70435;-40
2022/01/20 03:29:40;;;;;;;23.25;17.67;;;;;;;29.69;60.05;101122.59;5081122;27;65723;-39
2022/01/20 03:32:11;;;;;;;21.65;17.45;;;;;;;29.74;60.26;101125.50;5079506;27;70520;-40
2022/01/20 03:34:42;;;;;;;21.92;17.92;;;;;;;29.78;59.75;101125.94;5081230;27;66757;-40
2022/01/20 03:37:17;;;;;;;22.88;17.20;;;;;;;29.78;59.74;101121.38;5076651;27;69446;-39
2022/01/20 03:40:13;;;;;;;21.73;17.38;;;;;;;29.78;59.57;101121.38;5060613;28;65140;-39
2022/01/20 03:42:44;;;;;;;21.13;17.33;;;;;;;29.84;59.44;101127.81;5078499;27;69505;-39
2022/01/20 03:45:16;;;;;;;22.25;17.90;;;;;;;29.84;60.02;101122.41;5080399;27;65955;-40
2022/01/20 03:47:51;;;;;;;19.67;16.83;;;;;;;29.84;59.22;101108.91;5074330;27;69640;-39
2022/01/20 03:53:11;;;;;;;19.38;17.20;;;;;;;29.92;59.30;101126.75;5079595;27;68546;-40
2022/01/20 03:55:43;;;;;;;24.75;17.35;;;;;;;29.95;59.12;101129.03;5078459;27;66970;-41
2022/01/20 03:58:17;;;;;;;27.30;17.60;;;;;;;29.97;59.12;101129.69;5077667;27;69290;-38
2022/01/20 04:00:48;;;;;;;20.15;17.10;;;;;;;30.01;59.55;101125.53;5078919;27;66632;-39
2022/01/20 04:03:27;;;;;;;19.25;16.70;;;;;;;30.04;59.37;101127.81;5078951;27;70103;-39
2022/01/20 04:06:24;;;;;;;22.40;17.42;;;;;;;30.07;59.19;101124.69;5075002;27;66350;-40
2022/01/20 04:08:55;;;;;;;18.08;16.05;;;;;;;30.10;59.26;101113.44;5080705;27;69728;-40
2022/01/20 04:11:28;;;;;;;18.23;16.30;;;;;;;30.09;58.99;101109.09;5078983;27;65745;-46
2022/01/20 04:13:59;;;;;;;19.63;17.42;;;;;;;30.14;58.90;101103.84;5077893;27;69950;-40
2022/01/20 04:16:49;;;;;;;20.00;16.60;;;;;;;30.20;58.31;101097.63;5073149;27;66646;-39
2022/01/20 04:19:21;;;;;;;18.85;16.92;;;;;;;30.21;58.33;101093.88;5073749;27;70705;-40
2022/01/20 04:21:51;;;;;;;18.05;15.65;;;;;;;30.25;58.36;101095.13;5079374;27;66138;-37
2022/01/20 04:24:22;;;;;;;21.77;17.95;;;;;;;30.27;58.71;101087.63;5075572;27;69520;-39
2022/01/20 04:26:52;;;;;;;22.08;18.17;;;;;;;30.30;58.53;101086.38;5080137;27;66431;-38
2022/01/20 04:29:23;;;;;;;21.63;17.45;;;;;;;30.33;58.58;101079.72;5079259;27;70639;-38
2022/01/20 04:31:53;;;;;;;19.95;17.88;;;;;;;30.36;58.12;101063.06;5076808;27;65493;-38
2022/01/20 04:34:25;;;;;;;21.00;16.98;;;;;;;30.35;58.21;101061.41;5077983;27;70259;-38
2022/01/20 04:36:57;;;;;;;19.70;17.42;;;;;;;30.42;58.01;101064.91;5068244;27;65956;-38
2022/01/20 04:39:32;;;;;;;19.10;16.95;;;;;;;30.40;58.27;101053.50;5074397;27;69309;-38
2022/01/20 04:42:04;;;;;;;18.95;17.02;;;;;;;30.48;57.91;101050.56;5075830;27;66205;-38
2022/01/20 04:47:26;;;;;;;22.50;18.45;;;;;;;30.53;57.96;101053.41;5077501;27;66597;-38
2022/01/20 04:58:23;;;;;;;20.02;16.80;;;;;;;30.65;57.56;101040.06;5067943;27;67050;-38
2022/01/20 05:00:54;;;;;;;23.58;17.42;;;;;;;30.68;57.39;101029.63;5074977;27;70183;-39
2022/01/20 05:03:47;;;;;;;19.63;17.65;;;;;;;30.72;57.42;101035.44;5059283;27;66336;-38
2022/01/20 05:06:52;;;;;;;;;;;;;;;30.47;57.28;101028.03;5057385;27;69931;-37
2022/01/20 05:09:23;;;;;;;18.95;16.85;;;;;;;30.72;57.10;101025.44;5070989;27;66092;-37
2022/01/20 05:12:15;;;;;;;18.55;16.63;;;;;;;30.76;57.07;101014.16;5078205;27;69947;-37
2022/01/20 05:14:46;;;;;;;21.73;16.77;;;;;;;30.84;56.91;101008.53;5060140;28;65604;-37
2022/01/20 05:17:17;;;;;;;18.55;16.45;;;;;;;30.82;56.72;100997.94;5069352;28;70005;-39
2022/01/20 05:19:53;;;;;;;21.08;17.70;;;;;;;30.88;56.71;101001.66;5078548;27;65730;-37
2022/01/20 05:22:23;;;;;;;18.77;16.85;;;;;;;30.91;56.58;101001.19;5071761;27;70405;-37
2022/01/20 05:24:59;;;;;;;19.63;16.83;;;;;;;30.90;56.52;100994.97;5072266;27;66067;-37
2022/01/20 05:27:29;;;;;;;19.30;16.65;;;;;;;30.92;56.85;100992.88;5081233;27;71079;-38
2022/01/20 05:30:00;;;;;;;24.65;17.98;;;;;;;30.95;56.66;100986.16;5076581;27;66801;-38
2022/01/20 05:32:31;;;;;;;23.13;17.93;;;;;;;30.96;56.47;100987.00;5077665;27;70377;-38
2022/01/20 05:35:01;;;;;;;17.95;16.20;;;;;;;30.97;56.72;100981.38;5061974;28;66261;-40
2022/01/20 05:37:33;;;;;;;18.45;16.65;;;;;;;30.97;56.59;100978.66;5078445;27;69998;-38
2022/01/20 05:40:05;;;;;;;20.13;17.15;;;;;;;30.97;56.46;100967.00;5074946;27;66730;-37
2022/01/20 05:42:36;;;;;;;20.17;16.70;;;;;;;30.96;57.07;100959.94;5077046;27;69986;-37
2022/01/20 05:45:14;;;;;;;21.85;17.25;;;;;;;30.97;56.73;100951.56;5074699;27;66668;-38
2022/01/20 05:47:47;;;;;;;19.60;17.35;;;;;;;30.94;56.60;100936.56;5077742;27;70087;-38
2022/01/20 05:50:46;;;;;;;22.38;17.67;;;;;;;30.80;56.60;100907.13;5038066;27;66262;-38
2022/01/20 05:53:16;;;;;;;18.95;16.92;;;;;;;31.00;56.79;100923.22;5075943;27;69633;-39
2022/01/20 05:55:46;;;;;;;18.88;16.85;;;;;;;30.99;56.47;100916.97;5078244;27;65428;-37
2022/01/20 05:58:19;;;;;;;20.45;16.75;;;;;;;30.91;56.45;100899.09;5075842;27;70386;-38
2022/01/20 06:00:50;;;;;;;19.83;17.00;;;;;;;31.00;56.67;100902.38;5066570;27;66642;-38
2022/01/20 06:03:36;;;;;;;19.08;16.35;;;;;;;31.05;56.23;100899.00;5077610;27;69529;-38
2022/01/20 06:06:15;;;;;;;21.83;17.08;;;;;;;31.08;56.37;100883.13;5072756;27;65729;-38
2022/01/20 06:08:48;;;;;;;20.02;16.15;;;;;;;31.11;56.63;100887.28;5070420;27;69123;-40
2022/01/20 06:11:19;;;;;;;18.73;15.98;;;;;;;31.11;56.40;100877.25;5077691;27;66285;-37
2022/01/20 06:13:51;;;;;;;20.17;16.70;;;;;;;31.16;56.20;100866.59;5077192;27;70454;-39
2022/01/20 06:16:21;;;;;;;20.00;16.08;;;;;;;31.16;56.24;100857.63;5077983;27;65800;-37
2022/01/20 06:19:01;;;;;;;18.75;16.73;;;;;;;31.21;56.16;100859.69;5075934;27;69230;-38
2022/01/20 06:21:32;;;;;;;20.63;16.92;;;;;;;31.23;55.98;100852.13;5078998;27;65286;-38
2022/01/20 06:24:03;;;;;;;21.88;16.73;;;;;;;31.23;55.94;100846.72;5078208;27;69716;-37
2022/01/20 06:26:33;;;;;;;18.67;16.35;;;;;;;31.26;55.94;100852.53;5074321;27;66193;-37
2022/01/20 06:29:04;;;;;;;23.52;15.60;;;;;;;31.24;55.87;100842.97;5080685;27;69911;-37
2022/01/20 06:31:35;;;;;;;17.95;16.10;;;;;;;31.27;55.73;100842.53;5082909;27;65503;-38
2022/01/20 06:34:05;;;;;;;17.77;15.93;;;;;;;31.29;55.56;100835.00;5079154;27;69948;-37
2022/01/20 06:36:40;;;;;;;21.13;16.77;;;;;;;31.29;55.74;100827.69;5075046;27;65474;-38
2022/01/20 06:39:10;;;;;;;17.90;16.00;;;;;;;31.27;55.44;100821.66;5062520;27;69746;-37
2022/01/20 06:41:43;;;;;;;17.83;15.52;;;;;;;31.30;56.08;100823.94;5077260;27;66343;-37
2022/01/20 06:44:15;;;;;;;17.05;15.30;;;;;;;31.29;55.60;100818.75;5080770;27;69527;-38
2022/01/20 06:46:48;;;;;;;16.88;15.32;;;;;;;31.32;56.07;100804.75;5077026;27;66518;-38
2022/01/20 06:49:26;;;;;;;19.75;14.90;;;;;;;31.15;55.97;100775.53;5063006;27;69163;-37
2022/01/20 06:52:04;;;;;;;18.42;15.98;;;;;;;31.33;55.89;100798.25;5072460;27;65786;-37
2022/01/20 06:54:36;;;;;;;18.35;15.13;;;;;;;31.19;55.54;100764.22;5079914;27;71207;-38
2022/01/20 06:57:18;;;;;;;17.02;15.27;;;;;;;31.36;55.66;100792.41;5075056;27;65218;-38
2022/01/20 06:59:49;;;;;;;17.88;15.98;;;;;;;31.40;55.88;100788.22;5079882;27;69580;-39
2022/01/20 07:02:20;;;;;;;17.85;15.43;;;;;;;31.40;55.42;100782.78;5082411;27;66257;-39
2022/01/20 07:04:51;;;;;;;16.67;14.98;;;;;;;31.42;55.29;100775.25;5079579;27;70234;-39
2022/01/20 07:07:22;;;;;;;17.55;15.68;;;;;;;31.45;55.24;100774.78;5079885;27;66437;-41
2022/01/20 07:10:16;;;;;;;17.75;15.23;;;;;;;31.32;55.19;100737.00;5078810;27;69704;-39
2022/01/20 07:12:55;;;;;;;20.05;16.00;;;;;;;31.30;55.42;100728.25;5080002;27;66018;-38
2022/01/20 07:15:25;;;;;;;17.38;15.70;;;;;;;31.48;55.46;100741.81;5080505;27;69703;-39
2022/01/20 07:17:56;;;;;;;16.73;15.07;;;;;;;31.54;55.56;100748.22;5078621;27;65979;-37
2022/01/20 07:20:28;;;;;;;16.33;14.68;;;;;;;31.55;55.69;100739.03;5081104;27;71202;-38
2022/01/20 07:23:26;;;;;;;15.95;14.40;;;;;;;31.59;55.14;100737.50;5075770;27;65916;-38
2022/01/20 07:26:05;;;;;;;16.30;14.68;;;;;;;31.63;55.16;100737.88;5066334;27;70124;-38
2022/01/20 07:28:41;;;;;;;17.40;15.10;;;;;;;31.64;54.72;100729.50;5074337;27;66623;-38
2022/01/20 07:31:12;;;;;;;20.40;14.82;;;;;;;31.67;55.12;100733.66;5079675;27;69138;-37
2022/01/20 07:33:44;;;;;;;16.45;14.77;;;;;;;31.70;55.19;100727.75;5079132;27;66145;-38
2022/01/20 07:36:17;;;;;;;17.90;15.07;;;;;;;31.72;55.10;100728.38;5079344;27;70026;-39
2022/01/20 07:38:48;;;;;;;20.87;14.77;;;;;;;31.74;54.90;100718.94;5072983;27;65940;-38
2022/01/20 07:41:21;;;;;;;17.38;14.75;;;;;;;31.78;54.65;100717.41;5059833;28;70021;-38
2022/01/20 07:43:51;;;;;;;16.42;14.73;;;;;;;31.78;54.78;100716.59;5078256;27;65733;-40
2022/01/20 07:46:49;;;;;;;15.77;13.60;;;;;;;31.80;55.01;100722.63;5077890;27;70841;-38
2022/01/20 07:49:21;;;;;;;15.07;13.63;;;;;;;31.81;54.88;100714.22;5072665;27;66040;-39
2022/01/20 07:51:53;;;;;;;16.38;14.73;;;;;;;31.82;54.54;100710.47;5073809;27;69620;-38
2022/01/20 07:54:23;;;;;;;15.52;13.93;;;;;;;31.86;54.54;100707.31;5077969;27;67098;-39
2022/01/20 07:56:53;;;;;;;15.98;13.70;;;;;;;31.89;54.33;100704.13;5074267;27;69915;-38
2022/01/20 07:59:24;;;;;;;16.63;14.13;;;;;;;31.89;54.59;100706.84;5069421;27;65660;-39
2022/01/20 08:01:55;;;;;;;16.23;14.23;;;;;;;31.91;54.77;100705.59;5080673;27;70166;-38
2022/01/20 08:04:25;;;;;;;17.00;14.40;;;;;;;31.89;54.05;100696.81;5038977;28;65472;-39
2022/01/20 08:07:01;;;;;;;15.70;14.10;;;;;;;31.90;54.27;100698.47;5078727;27;70090;-39
2022/01/20 08:09:32;;;;;;;14.75;13.35;;;;;;;31.92;54.35;100704.50;5076729;27;66214;-38
2022/01/20 08:12:26;;;;;;;15.32;13.90;;;;;;;31.91;54.48;100702.03;5066591;27;69535;-37
2022/01/20 08:15:09;;;;;;;17.70;14.45;;;;;;;31.92;53.99;100701.81;5073328;27;66830;-38
2022/01/20 08:17:44;;;;;;;15.70;14.23;;;;;;;31.94;54.11;100707.84;5064177;27;70683;-38
2022/01/20 08:20:16;;;;;;;15.85;14.10;;;;;;;31.94;53.89;100696.97;5079594;27;66602;-38
2022/01/20 08:22:53;;;;;;;16.52;14.70;;;;;;;31.95;54.20;100703.22;5065187;28;70177;-39
2022/01/20 08:25:24;;;;;;;15.75;14.38;;;;;;;31.94;54.39;100699.69;5078025;27;65791;-37
2022/01/20 08:27:56;;;;;;;15.57;13.68;;;;;;;31.96;54.30;100700.28;5073148;27;70453;-38
2022/01/20 08:30:27;;;;;;;17.30;14.15;;;;;;;31.97;54.24;100701.94;5058350;27;66703;-38
2022/01/20 08:33:00;;;;;;;14.80;13.50;;;;;;;31.96;54.49;100692.16;5073877;27;69689;-38
2022/01/20 08:35:50;;;;;;;15.43;13.95;;;;;;;31.93;54.37;100689.06;5070059;27;66496;-37
2022/01/20 08:38:27;;;;;;;14.82;13.52;;;;;;;31.95;54.26;100693.19;5077136;27;70777;-37
2022/01/20 08:41:01;;;;;;;15.68;14.13;;;;;;;31.98;54.05;100698.19;5086272;27;65302;-37
2022/01/20 08:43:38;;;;;;;16.88;14.13;;;;;;;31.97;54.12;100699.22;5082274;27;70123;-37
2022/01/20 08:46:25;;;;;;;14.80;13.40;;;;;;;31.96;54.19;100697.59;5086807;27;66051;-38
2022/01/20 08:48:56;;;;;;;15.32;13.88;;;;;;;31.98;54.35;100698.19;5065233;28;70228;-38
2022/01/20 08:51:37;;;;;;;14.63;13.32;;;;;;;31.97;54.11;100696.50;5066055;27;66374;-37
2022/01/20 08:54:27;;;;;;;14.85;13.35;;;;;;;31.96;54.01;100697.59;5077622;27;69256;-38
2022/01/20 08:57:08;;;;;;;21.02;13.40;;;;;;;31.97;54.30;100696.50;5077636;27;66610;-37
2022/01/20 08:59:41;;;;;;;15.67;14.00;;;;;;;31.97;54.24;100682.94;5074276;27;70334;-37
2022/01/20 09:02:13;;;;;;;14.73;13.32;;;;;;;31.95;53.97;100682.34;5078429;27;67212;-38
2022/01/20 09:04:43;;;;;;;14.85;13.50;;;;;;;31.98;54.21;100691.91;5061429;28;70123;-37
2022/01/20 09:07:50;;;;;;;13.40;12.30;;;;;;;31.97;54.42;100691.09;4980514;28;66295;-37
2022/01/20 09:10:21;;;;;;;15.10;13.57;;;;;;;31.97;53.87;100680.22;5075492;27;70182;-37
2022/01/20 09:15:44;;;;;;;14.98;13.68;;;;;;;31.96;54.09;100685.91;5075866;27;71035;-38
2022/01/20 09:18:25;;;;;;;14.90;13.60;;;;;;;31.95;54.07;100690.47;5078258;27;65766;-38
2022/01/20 09:20:56;;;;;;;15.50;14.05;;;;;;;31.97;54.16;100684.84;5056694;28;69922;-38
2022/01/20 09:23:27;;;;;;;14.93;13.63;;;;;;;31.96;54.36;100684.03;5060299;28;66239;-38
2022/01/20 09:25:58;;;;;;;18.17;14.55;;;;;;;31.97;53.99;100691.09;5078240;27;70179;-38
2022/01/20 09:28:31;;;;;;;16.20;14.60;;;;;;;31.93;54.07;100687.19;5075317;27;65346;-39
2022/01/20 09:31:02;;;;;;;17.50;15.70;;;;;;;31.96;53.81;100694.88;5077256;27;70763;-38
2022/01/20 09:33:33;;;;;;;15.90;14.40;;;;;;;31.96;54.07;100700.28;5071867;27;65685;-38
2022/01/20 09:36:09;;;;;;;21.73;15.50;;;;;;;31.97;54.05;100712.78;5070276;27;69801;-37
2022/01/20 09:38:40;;;;;;;17.58;15.77;;;;;;;31.97;53.94;100706.53;5049282;28;66241;-39
2022/01/20 09:41:16;;;;;;;17.10;15.57;;;;;;;31.96;54.01;100711.16;5069835;27;69979;-37
2022/01/20 09:43:47;;;;;;;20.00;16.70;;;;;;;31.97;54.11;100706.53;5073404;28;65237;-39
2022/01/20 09:46:17;;;;;;;21.98;17.42;;;;;;;31.96;54.01;100708.44;5080968;27;70517;-37
2022/01/20 09:48:53;;;;;;;26.83;17.80;;;;;;;31.95;54.33;100712.19;5059258;28;67126;-38
2022/01/20 09:51:36;;;;;;;29.42;17.75;;;;;;;31.95;54.02;100714.91;5062728;27;69002;-39
2022/01/20 09:54:14;;;;;;;20.00;17.80;;;;;;;31.94;53.75;100713.25;5076480;27;66596;-38
2022/01/20 09:57:00;;;;;;;20.95;16.88;;;;;;;31.93;54.31;100727.88;5075127;27;69395;-39
2022/01/20 09:59:32;;;;;;;23.90;17.85;;;;;;;31.93;54.03;100727.88;5075541;27;66377;-38
2022/01/20 10:02:07;;;;;;;21.90;18.90;;;;;;;31.91;54.37;100738.13;5075939;27;69927;-38
2022/01/20 10:04:38;;;;;;;27.83;19.20;;;;;;;31.91;54.19;100727.28;5071421;27;66505;-37
2022/01/20 10:07:19;;;;;;;25.03;18.83;;;;;;;31.91;54.38;100745.41;5075652;27;70335;-38
2022/01/20 10:10:01;;;;;;;20.65;18.48;;;;;;;31.90;54.38;100744.59;5078915;27;65524;-40
2022/01/20 10:13:05;;;;;;;21.80;19.15;;;;;;;31.75;54.48;100717.88;5049284;27;70754;-37
2022/01/20 10:16:01;;;;;;;21.98;18.70;;;;;;;31.89;54.51;100736.69;5077961;27;65548;-38
2022/01/20 10:18:49;;;;;;;23.25;18.52;;;;;;;31.85;54.71;100741.75;5072799;27;70139;-38
2022/01/20 10:21:35;;;;;;;24.67;18.77;;;;;;;31.72;54.30;100723.75;5076488;27;65575;-38
2022/01/20 10:24:29;;;;;;;25.98;18.77;;;;;;;31.87;54.65;100741.50;5071310;27;70283;-37
2022/01/20 10:27:10;;;;;;;25.35;18.88;;;;;;;31.87;54.54;100749.63;5071533;27;66992;-39
2022/01/20 10:30:01;;;;;;;24.05;19.95;;;;;;;31.63;54.44;100721.63;5070420;27;70572;-38
2022/01/20 10:32:45;;;;;;;26.25;20.25;;;;;;;31.71;54.64;100734.84;5072494;28;65456;-38
2022/01/20 10:35:19;;;;;;;24.35;20.17;;;;;;;31.85;54.41;100758.03;5069580;28;70299;-38
2022/01/20 10:38:11;;;;;;;29.02;19.25;;;;;;;31.80;54.66;100763.31;5040479;28;65210;-38
2022/01/20 10:40:50;;;;;;;23.38;19.20;;;;;;;31.71;54.64;100740.28;5072197;27;69207;-38
2022/01/20 10:43:24;;;;;;;26.60;18.60;;;;;;;31.81;54.51;100764.94;5075345;28;65714;-37
2022/01/20 10:46:10;;;;;;;28.40;19.40;;;;;;;31.75;54.82;100768.59;5075749;27;70083;-39
2022/01/20 10:48:42;;;;;;;25.40;19.10;;;;;;;31.78;55.00;100773.53;5072246;28;65112;-38
2022/01/20 10:51:18;;;;;;;23.93;18.83;;;;;;;31.42;54.87;100717.50;5077796;27;69925;-39
2022/01/20 10:54:13;;;;;;;26.83;18.02;;;;;;;31.51;55.69;100752.22;5077087;27;66203;-39
2022/01/20 10:56:48;;;;;;;42.35;19.42;;;;;;;31.72;55.62;100774.47;5075470;27;69678;-41
2022/01/20 10:59:20;;;;;;;30.80;18.40;;;;;;;31.65;55.95;100762.88;5068882;27;65407;-42
2022/01/20 11:02:02;;;;;;;26.92;20.70;;;;;;;31.38;57.33;100744.25;5077640;27;69182;-41
2022/01/20 11:04:34;;;;;;;35.58;19.20;;;;;;;31.58;57.48;100787.38;5064616;28;65311;-42
2022/01/20 11:07:09;;;;;;;26.45;18.08;;;;;;;31.56;57.96;100789.47;5090256;27;70763;-40
2022/01/20 11:10:11;;;;;;;42.13;18.98;;;;;;;31.52;58.21;100799.13;5080791;27;66336;-41
2022/01/20 11:13:04;;;;;;;35.13;17.65;;;;;;;31.39;57.78;100795.50;5070987;27;70213;-40
2022/01/20 11:15:40;;;;;;;23.30;16.08;;;;;;;31.42;57.93;100812.38;5078956;27;65774;-41
2022/01/20 11:18:11;;;;;;;26.00;16.42;;;;;;;31.39;58.30;100808.22;5063668;28;69691;-41
2022/01/20 11:20:47;;;;;;;23.67;15.40;;;;;;;31.33;58.21;100811.81;5079452;27;66707;-40
2022/01/20 11:23:23;;;;;;;25.25;15.15;;;;;;;31.33;58.18;100814.53;5080509;27;70790;-41
2022/01/20 11:26:13;;;;;;;30.88;15.57;;;;;;;31.30;59.06;100820.41;5079904;27;66437;-41
2022/01/20 11:29:03;;;;;;;25.58;14.85;;;;;;;31.28;59.05;100822.50;5077424;27;69872;-40
2022/01/20 11:31:59;;;;;;;24.08;14.52;;;;;;;31.24;59.36;100822.13;5073869;27;66466;-40
2022/01/20 11:35:10;;;;;;;21.35;14.85;;;;;;;31.23;58.84;100820.47;5062765;28;69134;-40
2022/01/20 11:37:53;;;;;;;26.33;14.48;;;;;;;31.23;59.45;100822.31;5086365;27;65760;-40
2022/01/20 11:40:24;;;;;;;24.98;14.23;;;;;;;31.21;59.78;100832.59;5084707;27;69349;-40
2022/01/20 11:43:06;;;;;;;25.38;14.15;;;;;;;31.14;59.50;100819.91;5067879;27;66475;-40
2022/01/20 11:45:39;;;;;;;21.13;12.93;;;;;;;31.19;59.07;100846.34;5079845;27;69397;-40
2022/01/20 11:48:24;;;;;;;17.60;12.85;;;;;;;31.10;59.51;100843.09;5083175;27;65683;-39
2022/01/20 11:51:09;;;;;;;18.25;13.35;;;;;;;31.12;59.57;100850.97;5081444;27;71038;-43
2022/01/20 11:53:42;;;;;;;15.57;13.60;;;;;;;31.13;58.99;100863.50;5077060;27;64652;-41
2022/01/20 11:56:13;;;;;;;20.10;12.80;;;;;;;31.09;59.26;100865.84;5076850;27;70394;-40
2022/01/20 11:58:51;;;;;;;20.45;12.35;;;;;;;30.87;58.99;100829.34;5080205;27;66170;-41
2022/01/20 12:01:21;;;;;;;16.45;12.23;;;;;;;31.03;58.80;100865.88;5072914;27;69526;-39
2022/01/20 12:03:52;;;;;;;16.08;12.70;;;;;;;31.07;59.51;100880.66;5081338;27;66479;-40
2022/01/20 12:06:46;;;;;;;22.25;12.93;;;;;;;31.04;59.43;100876.50;5071041;27;69973;-43
2022/01/20 12:09:29;;;;;;;18.73;12.57;;;;;;;31.00;59.78;100883.41;5077736;27;65680;-39
2022/01/20 12:12:00;;;;;;;14.05;12.27;;;;;;;30.92;59.69;100875.53;5077837;27;69149;-40
2022/01/20 12:14:38;;;;;;;17.75;11.98;;;;;;;31.01;59.30;100893.19;5076946;27;65525;-39
2022/01/20 12:17:15;;;;;;;17.42;12.18;;;;;;;31.01;59.11;100889.63;5074808;27;70210;-41
2022/01/20 12:19:54;;;;;;;23.02;12.55;;;;;;;30.98;59.96;100893.66;5074774;27;66294;-41
2022/01/20 12:22:24;;;;;;;17.65;12.52;;;;;;;30.96;59.48;100890.31;5071852;27;69646;-41
2022/01/20 12:24:57;;;;;;;16.65;11.82;;;;;;;30.76;59.47;100865.22;5077544;27;66206;-41
2022/01/20 12:27:29;;;;;;;15.02;11.10;;;;;;;30.92;59.34;100895.34;5080226;27;70368;-38
2022/01/20 12:29:59;;;;;;;13.40;11.68;;;;;;;30.92;59.58;100902.63;5079278;27;66118;-41
2022/01/20 12:32:29;;;;;;;14.93;11.25;;;;;;;30.92;59.29;100905.34;5078666;27;69750;-41
2022/01/20 12:35:02;;;;;;;19.17;11.85;;;;;;;30.72;59.84;100873.78;5084357;27;65354;-40
2022/01/20 12:37:40;;;;;;;17.35;11.73;;;;;;;30.89;59.97;100916.63;5080275;27;69983;-40
2022/01/20 12:40:34;;;;;;;18.30;11.50;;;;;;;30.81;59.93;100919.59;5073406;27;66182;-40
2022/01/20 12:43:04;;;;;;;12.13;10.90;;;;;;;30.86;59.88;100917.88;5078708;27;70102;-40
2022/01/20 12:45:55;;;;;;;12.52;11.35;;;;;;;30.83;59.90;100917.50;5085565;27;66303;-41
2022/01/20 12:48:25;;;;;;;14.65;11.52;;;;;;;30.84;59.37;100914.59;5101305;27;70089;-41
2022/01/20 12:51:05;;;;;;;13.00;10.48;;;;;;;30.83;59.79;100917.50;5078315;27;65459;-42
2022/01/20 12:53:39;;;;;;;13.55;11.23;;;;;;;30.84;59.94;100925.41;5083136;27;70453;-40